Time;durP1;ratioP1;P1;durP2;ratioP2;P2;SDS_P1;SDS_P2;PMS_P1;PMS_P2;Temp;Humidity;BMP_temperature;BMP_pressure;BME280_temperature;BME280_humidity;BME280_pressure;Samples;Min_cycle;Max_cycle;Signal;HPM_P1;HPM_P2
2021/04/29 00:01:55;;;;;;;11.20;8.07;;;9.40;66.30;;;8.64;49.37;93771.63;5027864;28;20228;-79
2021/04/29 00:04:22;;;;;;;12.60;9.23;;;9.40;66.30;;;8.61;49.52;93766.78;5011601;28;20212;-79
2021/04/29 00:06:49;;;;;;;12.05;9.13;;;9.30;66.30;;;8.56;49.44;93764.00;4978703;28;20267;-79
2021/04/29 00:09:16;;;;;;;10.23;7.70;;;9.30;66.40;;;8.55;49.13;93769.44;4998410;28;20320;-79
2021/04/29 00:11:43;;;;;;;10.57;8.30;;;9.30;66.40;;;8.51;49.23;93766.44;4988557;28;20268;-79
2021/04/29 00:14:12;;;;;;;12.50;9.07;;;9.20;66.30;;;8.44;49.75;93765.63;4986314;28;20313;-79
2021/04/29 00:16:40;;;;;;;12.38;8.85;;;9.20;66.50;;;8.41;49.60;93764.22;5003401;28;20291;-79
2021/04/29 00:19:08;;;;;;;12.75;9.00;;;9.10;66.40;;;8.38;49.54;93769.84;4979723;28;20304;-79
2021/04/29 00:21:36;;;;;;;12.60;8.80;;;9.10;66.60;;;8.37;49.71;93764.84;4979685;28;20210;-78
2021/04/29 00:24:06;;;;;;;13.80;9.73;;;9.10;66.60;;;8.34;49.93;93768.69;4973557;28;20253;-79
2021/04/29 00:26:33;;;;;;;15.18;9.38;;;9.10;66.90;;;8.30;49.47;93762.25;4980387;28;20268;-79
2021/04/29 00:29:00;;;;;;;14.10;9.82;;;9.00;66.70;;;8.29;49.94;93764.06;4983218;28;20209;-79
2021/04/29 00:31:28;;;;;;;13.15;9.25;;;9.00;66.80;;;8.24;49.92;93761.28;4979858;28;20302;-79
2021/04/29 00:33:55;;;;;;;15.10;9.48;;;9.00;67.00;;;8.26;50.02;93758.44;5014321;28;20308;-79
2021/04/29 00:36:22;;;;;;;13.77;9.70;;;9.00;67.00;;;8.26;50.30;93767.06;4989529;28;20292;-79
2021/04/29 00:38:49;;;;;;;14.65;9.65;;;8.90;67.10;;;8.25;50.08;93764.69;5006530;28;20235;-79
2021/04/29 00:41:16;;;;;;;15.73;10.43;;;8.90;67.10;;;8.28;49.87;93767.69;5042146;28;20290;-79
2021/04/29 00:43:42;;;;;;;14.63;10.23;;;8.90;67.30;;;8.28;50.29;93762.47;5038873;28;20248;-78
2021/04/29 00:46:13;;;;;;;16.15;9.98;;;8.90;67.30;;;8.31;50.39;93766.47;5004680;28;20202;-79
2021/04/29 00:48:42;;;;;;;14.15;10.13;;;8.90;67.40;;;8.31;50.70;93764.66;5017756;28;20223;-80
2021/04/29 00:51:09;;;;;;;13.52;9.70;;;9.00;67.80;;;8.34;50.34;93760.84;5038782;28;20243;-79
2021/04/29 00:53:39;;;;;;;14.73;10.05;;;8.90;67.60;;;8.34;50.65;93756.41;4995611;28;20220;-79
2021/04/29 00:56:07;;;;;;;14.32;9.75;;;9.00;67.80;;;8.38;50.90;93759.41;5004831;28;20235;-79
2021/04/29 00:58:34;;;;;;;14.43;10.50;;;8.90;67.80;;;8.38;50.83;93763.84;5007324;28;20280;-79
2021/04/29 01:01:03;;;;;;;13.32;9.45;;;9.00;67.90;;;8.40;50.93;93762.63;4999449;28;20235;-79
2021/04/29 01:03:57;;;;;;;15.35;9.93;;;9.00;68.00;;;8.41;50.88;93766.03;4994224;28;20229;-79
2021/04/29 01:06:40;;;;;;;12.73;9.10;;;9.00;69.00;;;8.46;50.91;93764.44;5008118;28;20616;-78
2021/04/29 01:09:17;;;;;;;13.70;9.52;;;9.00;69.10;;;8.53;51.21;93768.84;4998771;28;20224;-78
2021/04/29 01:11:51;;;;;;;13.20;9.73;;;9.00;68.50;;;8.59;51.41;93773.22;4968369;28;20226;-79
2021/04/29 01:14:19;;;;;;;14.85;10.30;;;9.10;68.90;;;8.64;50.95;93769.00;4959006;28;20193;-79
2021/04/29 01:16:46;;;;;;;12.85;9.10;;;9.10;68.40;;;8.74;50.96;93765.94;4980710;28;20233;-78
2021/04/29 01:19:16;;;;;;;14.30;9.98;;;9.10;68.40;;;8.81;51.00;93761.47;5009926;28;20224;-79
2021/04/29 01:21:45;;;;;;;14.38;9.80;;;9.20;68.80;;;8.92;51.15;93772.28;4983117;28;20687;-78
2021/04/29 01:24:20;;;;;;;15.63;9.80;;;9.20;68.80;;;9.02;51.31;93771.81;4988983;28;20216;-78
2021/04/29 01:26:54;;;;;;;15.32;9.88;;;9.30;69.40;;;9.10;51.24;93767.13;4978349;28;20217;-78
2021/04/29 01:29:30;;;;;;;16.80;10.93;;;9.40;69.30;;;9.19;51.08;93765.09;4995924;28;20209;-78
2021/04/29 01:31:58;;;;;;;13.32;9.60;;;9.50;69.80;;;9.28;51.19;93760.41;5010734;28;20235;-79
2021/04/29 01:34:37;;;;;;;12.93;9.98;;;9.50;69.00;;;9.34;51.47;93753.50;5006401;28;20250;-78
2021/04/29 01:37:06;;;;;;;14.55;10.35;;;9.60;69.60;;;9.45;51.24;93763.28;5050234;28;20325;-79
2021/04/29 01:39:36;;;;;;;15.07;10.20;;;9.70;69.20;;;9.52;51.32;93758.00;5031171;28;20243;-77
2021/04/29 01:42:05;;;;;;;13.18;10.27;;;9.70;69.20;;;9.56;51.50;93754.75;5030145;28;20319;-78
2021/04/29 01:44:35;;;;;;;17.38;11.20;;;9.80;69.20;;;9.68;51.52;93759.28;5031868;28;20215;-77
2021/04/29 01:47:02;;;;;;;14.88;10.65;;;9.90;69.30;;;9.73;51.59;93754.22;5025848;28;20236;-78
2021/04/29 01:49:29;;;;;;;18.00;11.40;;;9.90;69.20;;;9.81;51.73;93758.38;5007380;28;20220;-79
2021/04/29 01:51:57;;;;;;;17.08;11.13;;;10.00;68.00;;;9.87;51.68;93760.13;5005231;28;20233;-79
2021/04/29 01:54:26;;;;;;;16.15;11.25;;;10.10;68.20;;;9.94;51.73;93764.28;4991373;28;20654;-78
2021/04/29 01:56:53;;;;;;;19.63;11.50;;;10.10;68.00;;;10.01;52.23;93755.53;5016572;28;20295;-79
2021/04/29 01:59:20;;;;;;;16.02;10.80;;;10.30;68.20;;;10.07;51.81;93754.69;4974329;28;20748;-79
2021/04/29 02:01:47;;;;;;;17.73;11.13;;;10.30;68.20;;;10.13;51.82;93755.63;4988093;28;20228;-78
2021/04/29 02:04:14;;;;;;;21.50;12.15;;;10.30;68.20;;;10.16;52.02;93757.84;5007390;28;20215;-78
2021/04/29 02:06:44;;;;;;;19.75;12.70;;;10.40;68.30;;;10.22;52.18;93752.50;4999366;28;20248;-79
2021/04/29 02:09:12;;;;;;;26.17;14.43;;;10.50;68.50;;;10.27;52.83;93751.06;4976645;28;20248;-78
2021/04/29 02:11:52;;;;;;;21.52;13.93;;;10.50;68.70;;;10.30;52.61;93748.00;4964506;28;20259;-78
2021/04/29 02:14:28;;;;;;;21.10;13.57;;;10.50;69.10;;;10.35;53.05;93750.75;5006770;28;20212;-78
2021/04/29 02:16:59;;;;;;;25.23;13.40;;;10.60;69.40;;;10.39;52.85;93751.97;4994294;28;20237;-79
2021/04/29 02:19:30;;;;;;;24.85;14.93;;;10.60;68.80;;;10.42;52.92;93748.91;5007964;28;20263;-79
2021/04/29 02:21:59;;;;;;;25.13;14.60;;;10.70;68.90;;;10.44;53.25;93744.25;5012358;28;20282;-78
2021/04/29 02:24:32;;;;;;;27.30;16.15;;;10.70;69.00;;;10.49;53.89;93751.47;4973588;28;20214;-78
2021/04/29 02:27:00;;;;;;;29.42;16.58;;;10.80;69.30;;;10.52;54.07;93753.63;5000635;28;20296;-79
2021/04/29 02:29:27;;;;;;;24.45;15.32;;;10.80;69.40;;;10.53;53.38;93742.13;4999062;28;20678;-77
2021/04/29 02:31:55;;;;;;;23.83;15.15;;;10.90;69.20;;;10.58;53.39;93750.13;4991126;28;20275;-78
2021/04/29 02:34:23;;;;;;;26.67;15.48;;;10.90;69.20;;;10.61;53.50;93738.38;4982722;28;20202;-79
2021/04/29 02:36:50;;;;;;;26.58;15.82;;;10.90;69.30;;;10.63;53.86;93750.28;5008625;28;20637;-78
2021/04/29 02:39:17;;;;;;;27.60;16.95;;;11.00;69.50;;;10.67;53.95;93745.41;4978301;28;20269;-79
2021/04/29 02:41:44;;;;;;;22.67;15.75;;;11.00;69.60;;;10.67;54.15;93748.81;5004197;28;20311;-79
2021/04/29 02:44:11;;;;;;;25.27;16.08;;;11.00;69.50;;;10.69;54.54;93746.78;5000860;28;20577;-80
2021/04/29 02:46:41;;;;;;;25.60;16.23;;;11.00;69.70;;;10.69;54.80;93744.16;5002295;28;20232;-79
2021/04/29 02:49:08;;;;;;;27.70;15.98;;;11.00;69.80;;;10.71;54.60;93746.53;4986059;28;20202;-79
2021/04/29 02:51:41;;;;;;;30.58;17.90;;;11.10;69.80;;;10.68;55.04;93742.53;4976885;28;20684;-79
2021/04/29 02:54:09;;;;;;;31.23;17.23;;;11.10;70.20;;;10.72;55.02;93748.94;4994697;28;20209;-80
2021/04/29 02:56:42;;;;;;;25.85;16.27;;;11.10;70.00;;;10.72;55.12;93740.28;5016580;28;20214;-78
2021/04/29 02:59:11;;;;;;;28.92;17.48;;;11.10;70.50;;;10.72;55.08;93740.28;5031449;28;20203;-79
2021/04/29 03:01:40;;;;;;;26.75;16.60;;;11.10;70.00;;;10.73;54.98;93744.50;5031446;28;21205;-79
2021/04/29 03:04:07;;;;;;;25.10;15.73;;;11.10;70.00;;;10.73;54.75;93740.06;5009776;28;20217;-79
2021/04/29 03:06:35;;;;;;;22.42;14.93;;;11.10;69.90;;;10.75;54.70;93742.44;5026554;28;20266;-79
2021/04/29 03:09:05;;;;;;;26.55;16.85;;;11.10;69.90;;;10.76;55.06;93749.31;5000515;28;20201;-79
2021/04/29 03:11:34;;;;;;;27.35;16.80;;;11.10;70.20;;;10.78;55.08;93747.25;5031922;28;20227;-80
2021/04/29 03:14:02;;;;;;;26.98;16.80;;;11.10;70.40;;;10.78;55.02;93755.13;5034506;28;20662;-78
2021/04/29 03:16:30;;;;;;;27.98;16.80;;;11.20;70.20;;;10.81;54.75;93756.50;5023367;28;20377;-79
2021/04/29 03:18:57;;;;;;;30.88;18.60;;;11.20;70.20;;;10.81;55.65;93759.13;5001668;28;20243;-79
2021/04/29 03:21:23;;;;;;;30.15;19.02;;;11.20;70.30;;;10.80;55.18;93752.28;4964824;28;20588;-79
2021/04/29 03:23:50;;;;;;;29.23;17.98;;;11.20;70.30;;;10.84;55.48;93761.28;4995606;28;20275;-79
2021/04/29 03:26:17;;;;;;;28.35;17.42;;;11.20;70.30;;;10.82;54.84;93756.28;5002734;28;20243;-79
2021/04/29 03:28:44;;;;;;;28.40;16.75;;;11.20;70.30;;;10.86;54.96;93762.69;5013853;28;20247;-79
2021/04/29 03:31:10;;;;;;;27.60;16.35;;;11.20;70.30;;;10.88;54.77;93758.00;5016221;28;20211;-80
2021/04/29 03:33:38;;;;;;;29.75;16.77;;;11.20;70.20;;;10.89;54.88;93757.00;5029823;28;20583;-79
2021/04/29 03:36:05;;;;;;;29.58;15.93;;;11.20;70.30;;;10.91;54.97;93759.38;5015213;28;20266;-78
2021/04/29 03:38:32;;;;;;;31.80;17.50;;;11.20;70.20;;;10.91;54.79;93756.75;5012382;28;20568;-80
2021/04/29 03:40:58;;;;;;;27.67;16.55;;;11.20;70.30;;;10.93;55.17;93761.81;5035860;28;20204;-79
2021/04/29 03:43:25;;;;;;;28.40;17.90;;;11.30;70.50;;;10.93;55.43;93761.81;5019607;28;20299;-79
2021/04/29 03:45:51;;;;;;;29.27;17.75;;;11.30;70.50;;;10.91;55.33;93756.75;5033801;28;20398;-79
2021/04/29 03:48:18;;;;;;;28.70;18.73;;;11.30;70.60;;;10.93;55.79;93761.81;4998784;28;20236;-79
2021/04/29 03:50:45;;;;;;;28.83;17.73;;;11.30;70.70;;;10.93;55.15;93765.22;5009888;28;20684;-79
2021/04/29 03:53:12;;;;;;;28.52;17.83;;;11.30;70.60;;;10.93;55.49;93767.06;5010172;28;20224;-79
2021/04/29 03:55:38;;;;;;;25.92;17.23;;;11.30;70.60;;;10.93;55.35;93759.19;5055356;28;20286;-79
2021/04/29 03:58:05;;;;;;;29.58;18.75;;;11.30;70.70;;;10.93;55.80;93756.56;5038739;28;20676;-79
2021/04/29 04:00:32;;;;;;;32.20;18.98;;;11.30;70.70;;;10.94;55.78;93760.78;5034841;28;20727;-79
2021/04/29 04:02:58;;;;;;;29.38;18.30;;;11.30;70.90;;;10.95;55.66;93765.81;5047657;28;20715;-79
2021/04/29 04:05:25;;;;;;;30.73;18.63;;;11.30;70.90;;;10.94;55.75;93758.16;5032499;28;20222;-78
2021/04/29 04:07:52;;;;;;;30.73;17.77;;;11.30;70.90;;;10.98;55.84;93770.59;5011307;28;20221;-79
2021/04/29 04:10:19;;;;;;;31.23;19.17;;;11.30;70.90;;;10.98;55.83;93781.09;4973543;28;20217;-78
2021/04/29 04:12:46;;;;;;;29.35;17.52;;;11.30;71.00;;;10.99;55.74;93781.91;5026094;28;20302;-79
2021/04/29 04:15:13;;;;;;;28.17;17.77;;;11.40;71.00;;;11.01;55.33;93779.84;5034977;28;20299;-80
2021/04/29 04:17:40;;;;;;;28.67;16.88;;;11.30;70.90;;;11.03;55.58;93786.50;5035165;28;20239;-80
2021/04/29 04:20:23;;;;;;;27.98;16.63;;;11.30;70.90;;;11.05;55.40;93786.28;5012621;28;20193;-80
2021/04/29 04:22:49;;;;;;;29.15;17.42;;;11.40;70.90;;;11.09;55.42;93797.13;5005970;28;20253;-79
2021/04/29 04:25:17;;;;;;;28.10;16.02;;;11.40;70.90;;;11.09;55.49;93794.50;4998669;28;20213;-80
2021/04/29 04:27:44;;;;;;;27.23;16.67;;;11.40;71.00;;;11.12;55.31;93799.28;5008550;28;20232;-80
2021/04/29 04:30:11;;;;;;;25.52;16.20;;;11.40;71.00;;;11.13;55.15;93801.72;4995490;28;20220;-79
2021/04/29 04:32:38;;;;;;;27.90;17.23;;;11.40;70.90;;;11.15;55.26;93806.72;5015191;28;20216;-80
2021/04/29 04:35:05;;;;;;;26.98;16.55;;;11.50;71.00;;;11.15;55.17;93814.59;5009840;28;20201;-79
2021/04/29 04:37:32;;;;;;;28.63;17.70;;;11.50;71.00;;;11.15;55.41;93820.63;4987066;28;20643;-79
2021/04/29 04:39:59;;;;;;;27.67;17.15;;;11.50;70.90;;;11.18;55.24;93830.72;4968793;28;20213;-79
2021/04/29 04:42:25;;;;;;;27.48;17.08;;;11.50;71.10;;;11.20;55.34;93839.16;4915089;28;20667;-79
2021/04/29 04:44:52;;;;;;;26.98;16.60;;;11.50;71.00;;;11.17;55.06;93807.31;4998263;28;20207;-79
2021/04/29 04:47:19;;;;;;;26.30;17.15;;;11.50;70.90;;;11.21;55.35;93814.50;5014853;28;20228;-78
2021/04/29 04:49:46;;;;;;;28.38;17.30;;;11.50;71.00;;;11.21;55.55;93813.72;5023822;28;20209;-79
2021/04/29 04:52:13;;;;;;;26.98;17.10;;;11.50;71.10;;;11.22;55.27;93817.94;5014740;28;20228;-79
2021/04/29 04:54:40;;;;;;;35.40;21.98;;;11.50;71.00;;;11.23;55.62;93816.09;5004537;28;20379;-78
2021/04/29 04:57:09;;;;;;;33.13;21.55;;;11.60;71.10;;;11.24;55.81;93820.34;5023492;28;20700;-80
2021/04/29 04:59:36;;;;;;;36.80;19.58;;;11.50;71.10;;;11.26;55.83;93823.53;5042403;28;20231;-80
2021/04/29 05:02:03;;;;;;;28.40;17.98;;;11.50;71.10;;;11.28;55.86;93830.16;5024898;28;20589;-80
2021/04/29 05:04:32;;;;;;;27.83;17.80;;;11.60;71.30;;;11.30;55.60;93830.75;5013333;28;20216;-80
2021/04/29 05:06:59;;;;;;;29.33;18.48;;;11.60;71.30;;;11.34;55.69;93833.75;4988496;28;20218;-80
2021/04/29 05:09:26;;;;;;;28.08;17.83;;;11.60;71.40;;;11.37;55.75;93828.03;5022984;28;20228;-80
2021/04/29 05:11:54;;;;;;;27.27;17.55;;;11.60;71.40;;;11.35;56.06;93822.19;5016511;28;20314;-79
2021/04/29 05:14:20;;;;;;;27.40;16.83;;;11.60;71.30;;;11.38;55.71;93829.63;5027366;28;20212;-79
2021/04/29 05:16:47;;;;;;;26.60;17.13;;;11.70;71.50;;;11.36;56.24;93823.78;5012139;28;20266;-79
2021/04/29 05:19:13;;;;;;;39.90;19.88;;;11.70;71.50;;;11.40;56.23;93824.97;4998949;28;20706;-80
2021/04/29 05:21:40;;;;;;;29.85;19.02;;;11.70;71.60;;;11.43;56.14;93829.75;5024201;28;20775;-78
2021/04/29 05:24:07;;;;;;;31.75;20.50;;;11.70;71.70;;;11.47;56.90;93832.75;4990551;28;20305;-78
2021/04/29 05:26:34;;;;;;;35.67;20.92;;;11.70;71.90;;;11.50;56.33;93834.94;4986402;28;20209;-80
2021/04/29 05:29:02;;;;;;;31.67;19.67;;;11.80;71.90;;;11.57;55.95;93835.63;4968057;28;20281;-79
2021/04/29 05:31:29;;;;;;;29.50;18.67;;;11.80;72.00;;;11.61;55.99;93835.97;4998154;28;20215;-79
2021/04/29 05:33:56;;;;;;;30.95;19.65;;;11.80;71.90;;;11.66;56.13;93844.00;5003786;28;20738;-79
2021/04/29 05:36:23;;;;;;;30.33;18.88;;;11.80;71.90;;;11.71;55.78;93841.47;4979049;28;20202;-79
2021/04/29 05:38:50;;;;;;;35.38;19.88;;;11.90;72.00;;;11.76;56.05;93838.19;4994590;28;20264;-79
2021/04/29 05:41:16;;;;;;;27.77;18.00;;;11.90;71.90;;;11.76;56.03;93838.97;5015634;28;20721;-77
2021/04/29 05:43:43;;;;;;;31.67;20.25;;;11.90;71.70;;;11.78;56.13;93844.00;4986912;28;20237;-79
2021/04/29 05:46:10;;;;;;;28.33;17.60;;;12.00;71.90;;;11.81;55.59;93856.69;5036584;28;20606;-80
2021/04/29 05:48:37;;;;;;;27.50;17.20;;;12.00;71.80;;;11.79;55.77;93854.31;5029602;28;20812;-79
2021/04/29 05:51:04;;;;;;;33.83;20.33;;;12.00;71.80;;;11.83;56.01;93854.66;5011453;28;20200;-79
2021/04/29 05:53:31;;;;;;;32.35;19.00;;;12.00;71.70;;;11.86;55.79;93864.69;5007675;28;20299;-79
2021/04/29 05:55:57;;;;;;;29.88;18.15;;;12.10;71.90;;;11.85;56.07;93857.84;5029381;28;20270;-79
2021/04/29 05:58:24;;;;;;;30.02;18.48;;;12.10;71.80;;;11.91;55.99;93870.06;5014711;28;20216;-79
2021/04/29 06:00:51;;;;;;;29.30;17.40;;;12.10;71.90;;;11.95;55.65;93875.69;5018312;28;20631;-79
2021/04/29 06:03:21;;;;;;;29.00;17.50;;;12.20;71.90;;;11.98;55.94;93868.16;5012296;28;20277;-79
2021/04/29 06:05:49;;;;;;;25.98;16.67;;;12.20;71.90;;;12.04;55.74;93871.72;5002156;28;20224;-80
2021/04/29 06:08:16;;;;;;;26.48;16.88;;;12.20;71.90;;;12.11;55.88;93871.66;5003356;28;20220;-80
2021/04/29 06:10:42;;;;;;;28.83;17.48;;;12.30;72.00;;;12.15;55.84;93868.31;4999599;28;20235;-80
2021/04/29 06:13:09;;;;;;;29.88;18.50;;;12.30;72.00;;;12.24;56.12;93862.72;5016808;28;20708;-80
2021/04/29 06:15:36;;;;;;;26.80;17.05;;;12.30;72.10;;;12.30;55.90;93869.69;5016365;28;20217;-80
2021/04/29 06:18:04;;;;;;;28.02;17.88;;;12.40;72.10;;;12.38;55.98;93866.72;4987791;28;20226;-79
2021/04/29 06:20:31;;;;;;;29.27;18.02;;;12.40;72.20;;;12.48;55.85;93868.78;4990505;28;20221;-81
2021/04/29 06:22:57;;;;;;;29.42;16.83;;;12.60;72.40;;;12.56;55.82;93867.63;5002683;28;20773;-80
2021/04/29 06:25:24;;;;;;;29.65;17.73;;;12.60;72.30;;;12.68;55.83;93867.63;4966772;28;20277;-80
2021/04/29 06:27:51;;;;;;;27.30;17.35;;;12.60;72.30;;;12.77;55.61;93867.03;4983196;28;20263;-80
2021/04/29 06:30:19;;;;;;;25.35;16.33;;;12.70;72.30;;;12.88;55.52;93869.91;4986446;28;20248;-81
2021/04/29 06:32:46;;;;;;;26.02;16.67;;;12.80;72.50;;;13.02;55.70;93870.44;4988044;28;20232;-80
2021/04/29 06:35:13;;;;;;;28.05;18.35;;;12.90;72.50;;;13.13;55.50;93865.16;4986800;28;20201;-81
2021/04/29 06:37:40;;;;;;;27.70;18.60;;;13.00;72.50;;;13.21;55.57;93865.81;5003980;28;20282;-80
2021/04/29 06:40:07;;;;;;;25.80;16.58;;;13.20;72.60;;;13.36;55.01;93870.56;4980059;28;20236;-80
2021/04/29 06:42:33;;;;;;;23.45;15.93;;;13.20;72.50;;;13.48;55.27;93870.56;4951790;28;20775;-81
2021/04/29 06:45:00;;;;;;;22.88;16.15;;;13.30;72.40;;;13.60;55.29;93866.84;4944302;28;20210;-81
2021/04/29 06:47:31;;;;;;;25.45;16.27;;;13.40;72.30;;;13.74;55.12;93874.44;4966154;28;20304;-80
2021/04/29 06:49:58;;;;;;;22.50;15.02;;;13.50;72.30;;;13.87;55.19;93871.50;4937231;28;20303;-80
2021/04/29 06:52:25;;;;;;;23.55;15.63;;;13.70;72.30;;;13.93;54.81;93870.56;4920661;28;20227;-80
2021/04/29 06:54:52;;;;;;;22.48;15.68;;;13.80;72.10;;;14.09;54.82;93876.09;4965267;28;20669;-82
2021/04/29 06:57:19;;;;;;;23.90;16.48;;;13.90;72.10;;;14.19;54.29;93878.09;4980598;28;20304;-81
2021/04/29 06:59:46;;;;;;;24.15;15.35;;;14.00;71.90;;;14.24;54.33;93871.06;4966055;28;20264;-80
2021/04/29 07:02:13;;;;;;;21.88;15.10;;;14.10;71.80;;;14.36;54.38;93875.44;4986266;28;20318;-81
2021/04/29 07:05:00;;;;;;;24.17;14.82;;;14.20;71.80;;;14.45;54.08;93883.75;4978726;28;20258;-80
2021/04/29 07:07:27;;;;;;;22.20;15.18;;;14.30;71.60;;;14.53;54.06;93881.50;4982199;28;20240;-82
2021/04/29 07:09:53;;;;;;;22.55;15.40;;;14.40;71.70;;;14.60;54.02;93886.63;5033753;28;20196;-81
2021/04/29 07:12:21;;;;;;;22.90;15.48;;;14.50;71.50;;;14.66;54.03;93890.16;5005446;28;20227;-81
2021/04/29 07:14:48;;;;;;;20.92;15.15;;;14.60;71.50;;;14.73;53.96;93885.50;5033215;28;20212;-81
2021/04/29 07:17:15;;;;;;;23.25;14.95;;;14.60;71.40;;;14.81;53.98;93879.03;5016597;28;20300;-81
2021/04/29 07:19:42;;;;;;;21.17;14.32;;;14.70;71.50;;;14.91;54.08;93881.78;4994999;28;20592;-81
2021/04/29 07:22:09;;;;;;;22.17;15.20;;;14.80;71.60;;;15.07;53.75;93882.00;4994246;28;20260;-81
2021/04/29 07:24:36;;;;;;;25.33;16.70;;;14.80;71.70;;;15.16;53.73;93886.59;5009414;28;20197;-80
2021/04/29 07:27:04;;;;;;;20.85;15.35;;;15.00;71.50;;;15.23;53.30;93882.97;4964636;28;20232;-81
2021/04/29 07:29:32;;;;;;;22.00;15.25;;;15.00;71.10;;;15.28;53.49;93883.84;5012842;28;20239;-82
2021/04/29 07:32:00;;;;;;;22.77;15.13;;;15.10;71.00;;;15.34;53.17;93877.56;5004281;28;20224;-81
2021/04/29 07:34:28;;;;;;;22.30;14.73;;;15.20;70.90;;;15.41;53.16;93879.22;5013090;28;20295;-81
2021/04/29 07:36:59;;;;;;;22.00;15.18;;;15.30;70.90;;;15.48;53.20;93885.91;4995571;28;20220;-81
2021/04/29 07:39:27;;;;;;;20.77;14.45;;;15.30;70.70;;;15.55;53.26;93879.63;4988315;28;20233;-81
2021/04/29 07:41:53;;;;;;;18.48;13.77;;;15.40;70.90;;;15.61;52.99;93870.69;5019409;28;20231;-81
2021/04/29 07:44:20;;;;;;;19.83;13.68;;;15.50;70.70;;;15.74;52.98;93877.44;4999486;28;20208;-81
2021/04/29 07:46:48;;;;;;;21.63;15.00;;;15.60;70.60;;;15.75;52.74;93882.47;4996091;28;20220;-81
2021/04/29 07:49:15;;;;;;;19.00;13.98;;;15.60;70.50;;;15.83;52.94;93881.25;4992276;28;20659;-81
2021/04/29 07:51:41;;;;;;;20.48;14.10;;;15.70;70.40;;;15.88;52.56;93869.94;5002571;28;20222;-81
2021/04/29 07:54:08;;;;;;;19.77;13.90;;;15.70;70.40;;;15.94;52.67;93882.97;5029153;28;20270;-81
2021/04/29 07:56:35;;;;;;;20.67;14.52;;;15.80;70.40;;;16.01;52.44;93888.03;4980324;28;20290;-81
2021/04/29 07:59:02;;;;;;;19.85;14.05;;;15.90;70.30;;;16.07;52.37;93894.19;5005570;28;20238;-81
2021/04/29 08:01:29;;;;;;;18.63;13.18;;;15.90;70.10;;;16.11;52.30;93882.84;5003304;28;20216;-81
2021/04/29 08:04:00;;;;;;;20.42;13.30;;;15.90;70.10;;;16.16;52.27;93890.00;4984800;28;20533;-82
2021/04/29 08:06:28;;;;;;;17.13;13.13;;;16.00;70.20;;;16.24;52.09;93886.13;5014579;28;20208;-81
2021/04/29 08:08:56;;;;;;;17.92;13.57;;;16.10;70.00;;;16.32;52.26;93890.97;5017094;28;20327;-82
2021/04/29 08:11:23;;;;;;;19.17;14.10;;;16.10;70.20;;;16.43;52.24;93889.16;4994496;28;20663;-81
2021/04/29 08:13:52;;;;;;;17.77;13.38;;;16.10;70.30;;;16.58;52.15;93893.78;5024251;28;20239;-81
2021/04/29 08:16:19;;;;;;;16.48;12.63;;;16.20;70.30;;;16.75;52.04;93886.47;5035050;28;20207;-81
2021/04/29 08:18:48;;;;;;;17.27;13.27;;;16.30;70.30;;;16.94;52.06;93881.59;5029070;28;20585;-81
2021/04/29 08:21:22;;;;;;;25.55;17.00;;;16.40;70.50;;;17.14;52.00;93880.09;5010138;28;20733;-81
2021/04/29 08:23:50;;;;;;;21.90;14.82;;;16.60;70.50;;;17.32;51.62;93884.16;5038848;28;20275;-80
2021/04/29 08:26:17;;;;;;;16.45;12.75;;;16.70;70.50;;;17.50;51.31;93880.22;5043277;28;20246;-81
2021/04/29 08:28:44;;;;;;;15.38;11.57;;;16.90;70.70;;;17.80;51.30;93883.22;5008428;28;20227;-81
2021/04/29 08:31:10;;;;;;;12.50;10.57;;;17.10;70.60;;;18.02;51.02;93886.47;4990145;28;20209;-82
2021/04/29 08:33:37;;;;;;;12.27;9.20;;;17.30;70.10;;;18.29;49.97;93876.69;4969221;28;20232;-80
2021/04/29 08:36:04;;;;;;;11.65;9.77;;;17.50;69.90;;;18.47;49.13;93872.66;4975967;28;20225;-81
2021/04/29 08:38:31;;;;;;;12.75;9.82;;;17.70;68.90;;;18.65;48.65;93885.41;4975326;28;20236;-80
2021/04/29 08:40:58;;;;;;;10.52;8.30;;;17.90;68.80;;;18.85;48.93;93878.47;5014953;28;20198;-81
2021/04/29 08:43:24;;;;;;;10.30;8.38;;;18.10;68.50;;;18.95;47.57;93872.38;5016920;28;20225;-81
2021/04/29 08:45:51;;;;;;;15.40;10.73;;;18.30;67.80;;;18.92;46.73;93880.88;4991294;28;20219;-81
2021/04/29 08:48:24;;;;;;;11.55;9.25;;;18.40;67.00;;;18.82;46.41;93879.00;4998541;28;20231;-81
2021/04/29 08:50:52;;;;;;;11.88;9.73;;;18.40;66.80;;;18.71;46.56;93872.91;4975323;28;20307;-81
2021/04/29 08:53:19;;;;;;;11.70;8.13;;;18.50;66.30;;;18.61;46.85;93876.38;5007444;28;20633;-81
2021/04/29 08:55:46;;;;;;;10.90;8.48;;;18.50;66.30;;;18.58;46.85;93876.13;4988506;28;20230;-81
2021/04/29 08:58:14;;;;;;;8.43;7.13;;;18.60;66.20;;;18.62;47.72;93877.19;5008686;28;20224;-82
2021/04/29 09:00:41;;;;;;;9.00;6.93;;;18.50;66.60;;;18.78;47.77;93880.63;4978195;28;20213;-79
2021/04/29 09:03:08;;;;;;;9.70;7.43;;;18.50;66.90;;;18.93;47.56;93877.16;4943418;28;20230;-78
2021/04/29 09:05:35;;;;;;;8.95;7.53;;;18.60;67.50;;;19.07;46.31;93890.69;4992970;28;20205;-81
2021/04/29 09:08:07;;;;;;;7.38;6.05;;;18.70;66.30;;;19.18;46.38;93889.59;5028455;28;20326;-79
2021/04/29 09:10:37;;;;;;;5.80;5.15;;;18.80;65.80;;;19.26;46.35;93889.03;5029205;28;20295;-82
2021/04/29 09:13:15;;;;;;;6.28;5.60;;;18.90;65.90;;;19.35;45.75;93890.03;5020145;28;20230;-81
2021/04/29 09:15:42;;;;;;;8.23;5.60;;;19.00;65.40;;;19.45;45.56;93885.75;5028524;28;20279;-81
2021/04/29 09:18:13;;;;;;;7.18;5.25;;;19.10;65.50;;;19.57;45.47;93888.88;5019165;28;20231;-81
2021/04/29 09:21:17;;;;;;;7.00;4.88;;;19.10;65.20;;;19.77;45.79;93895.97;5022291;28;22109;-82
2021/04/29 09:23:51;;;;;;;6.90;6.03;;;19.30;65.40;;;19.89;43.45;93892.22;4987415;28;20224;-82
2021/04/29 09:26:20;;;;;;;6.43;5.70;;;19.40;64.20;;;20.02;44.16;93898.78;4953855;28;20214;-81
2021/04/29 09:28:58;;;;;;;7.38;5.50;;;19.60;64.40;;;20.14;44.13;93889.38;4941464;28;20312;-79
2021/04/29 09:31:27;;;;;;;6.40;5.63;;;19.70;64.30;;;20.26;44.48;93901.53;4969342;28;20193;-82
2021/04/29 09:33:57;;;;;;;6.60;5.55;;;19.80;64.60;;;20.36;44.23;93898.81;5008521;28;20239;-82
2021/04/29 09:36:28;;;;;;;6.32;5.03;;;19.90;64.40;;;20.44;43.76;93894.75;5001879;28;20581;-82
2021/04/29 09:39:08;;;;;;;4.70;4.20;;;20.00;63.50;;;20.51;43.57;93895.25;4969320;28;20272;-82
2021/04/29 09:41:46;;;;;;;5.25;4.32;;;20.10;63.60;;;20.53;43.75;93898.44;4976994;28;20690;-81
2021/04/29 09:44:19;;;;;;;5.38;4.50;;;20.20;64.00;;;20.52;43.06;93902.16;5002101;28;20200;-79
2021/04/29 09:46:51;;;;;;;4.47;3.90;;;20.20;63.60;;;20.53;43.06;93901.09;4979572;28;20211;-81
2021/04/29 09:49:35;;;;;;;4.30;3.47;;;20.20;63.60;;;20.57;42.79;93904.00;5008216;28;20209;-81
2021/04/29 09:52:15;;;;;;;3.90;3.10;;;20.30;63.20;;;20.62;42.73;93906.59;5003390;28;20223;-81
2021/04/29 09:54:42;;;;;;;4.43;3.35;;;20.30;63.70;;;20.66;42.24;93902.28;4998465;28;20312;-81
2021/04/29 09:57:21;;;;;;;5.50;2.90;;;20.30;63.00;;;20.77;43.33;93906.47;4992218;28;20690;-81
2021/04/29 09:59:50;;;;;;;3.53;2.47;;;20.40;63.40;;;20.93;43.16;93901.00;4971138;28;20225;-79
2021/04/29 10:02:18;;;;;;;3.10;2.80;;;20.40;63.80;;;21.07;42.50;93890.50;5014189;28;20247;-82
2021/04/29 10:04:46;;;;;;;3.60;2.80;;;20.60;63.00;;;21.23;42.70;93893.78;4967717;28;20215;-82
2021/04/29 10:07:19;;;;;;;3.13;2.83;;;20.70;63.50;;;21.43;42.37;93882.88;4995224;28;20610;-82
2021/04/29 10:09:47;;;;;;;3.22;2.92;;;20.90;63.20;;;21.68;41.83;93885.53;4992108;28;20223;-81
2021/04/29 10:12:17;;;;;;;3.65;3.25;;;21.00;62.70;;;21.89;40.06;93888.72;4983451;28;20233;-79
2021/04/29 10:14:51;;;;;;;3.60;3.30;;;21.20;62.70;;;22.09;40.18;93879.63;4977701;28;20313;-81
2021/04/29 10:17:20;;;;;;;3.47;3.17;;;21.40;62.10;;;22.26;39.74;93881.00;4988284;28;20247;-78